createdAt,value
2017-07-05T00:02:07.956Z,78.50
2017-07-05T00:04:35.457Z,78.50
2017-07-05T00:07:02.948Z,78.30
2017-07-05T00:09:30.429Z,78.50
2017-07-05T00:11:58.016Z,78.40
2017-07-05T00:14:26.277Z,78.60
2017-07-05T00:16:53.765Z,78.60
2017-07-05T00:19:21.250Z,78.90
2017-07-05T00:21:48.743Z,79.00
2017-07-05T00:24:16.231Z,79.00
2017-07-05T00:26:44.497Z,79.20
2017-07-05T00:29:12.742Z,79.10
2017-07-05T00:31:40.238Z,79.00
2017-07-05T00:34:08.480Z,79.40
2017-07-05T00:36:35.961Z,79.40
2017-07-05T00:39:04.221Z,80.40
2017-07-05T00:41:31.702Z,79.60
2017-07-05T00:43:59.969Z,79.30
2017-07-05T00:46:27.453Z,79.30
2017-07-05T00:48:54.939Z,79.20
2017-07-05T00:51:22.425Z,79.30
2017-07-05T00:53:49.912Z,79.30
2017-07-05T00:56:18.164Z,80.00
2017-07-05T00:58:45.664Z,79.90
2017-07-05T01:01:13.144Z,80.10
2017-07-05T01:03:40.627Z,80.20
2017-07-05T01:06:08.114Z,79.60
2017-07-05T01:08:36.344Z,79.50
2017-07-05T01:11:03.825Z,78.90
2017-07-05T01:13:32.126Z,79.20
2017-07-05T01:16:01.221Z,79.20
2017-07-05T01:18:29.469Z,79.20
2017-07-05T01:20:58.489Z,79.20
2017-07-05T01:23:26.733Z,79.50
2017-07-05T01:25:54.214Z,79.40
2017-07-05T01:28:21.691Z,79.30
2017-07-05T01:33:43.388Z,80.40
2017-07-05T01:36:10.875Z,79.90
2017-07-05T01:38:39.119Z,79.20
2017-07-05T01:41:06.595Z,79.10
2017-07-05T01:43:34.174Z,79.10
2017-07-05T01:46:02.471Z,80.20
2017-07-05T01:48:29.924Z,80.10
2017-07-05T01:50:57.391Z,80.70
2017-07-05T01:53:24.891Z,80.80
2017-07-05T01:55:52.364Z,80.80
2017-07-05T01:58:19.868Z,81.00
2017-07-05T02:00:47.346Z,81.10
2017-07-05T02:03:14.846Z,81.00
2017-07-05T02:05:42.336Z,81.10
2017-07-05T02:08:09.856Z,81.00
2017-07-05T02:10:37.339Z,81.20
2017-07-05T02:13:05.587Z,81.00
2017-07-05T02:15:33.076Z,81.00
2017-07-05T02:18:00.557Z,81.00
2017-07-05T02:20:28.069Z,80.40
2017-07-05T02:22:55.547Z,80.20
2017-07-05T02:25:23.795Z,80.00
2017-07-05T02:27:51.267Z,80.00
2017-07-05T02:30:19.533Z,80.50
2017-07-05T02:32:47.019Z,80.50
2017-07-05T02:35:14.559Z,80.50
2017-07-05T02:37:42.792Z,80.30
2017-07-05T02:40:10.275Z,80.30
2017-07-05T02:42:37.776Z,80.40
2017-07-05T02:45:05.259Z,80.40
2017-07-05T02:47:32.768Z,80.40
2017-07-05T02:50:01.009Z,81.40
2017-07-05T02:52:28.523Z,80.70
2017-07-05T02:54:56.015Z,80.90
2017-07-05T02:57:23.506Z,80.80
2017-07-05T02:59:50.994Z,80.70
2017-07-05T03:02:18.492Z,80.70
2017-07-05T03:04:45.994Z,80.60
2017-07-05T03:07:14.312Z,80.50
2017-07-05T03:09:41.788Z,80.50
2017-07-05T03:12:09.298Z,80.60
2017-07-05T03:14:37.566Z,80.40
2017-07-05T03:17:05.820Z,80.00
2017-07-05T03:19:33.312Z,79.80
2017-07-05T03:22:01.548Z,79.70
2017-07-05T03:24:29.041Z,79.70
2017-07-05T03:26:56.533Z,79.50
2017-07-05T03:29:24.026Z,79.60
2017-07-05T03:31:51.503Z,79.50
2017-07-05T03:34:19.756Z,79.60
2017-07-05T03:36:47.231Z,79.10
2017-07-05T03:39:15.499Z,80.20
2017-07-05T03:41:42.996Z,79.30
2017-07-05T03:44:10.539Z,79.40
2017-07-05T03:46:38.824Z,79.70
2017-07-05T03:49:06.314Z,79.70
2017-07-05T03:51:33.804Z,80.30
2017-07-05T03:54:01.312Z,80.90
2017-07-05T03:56:28.806Z,80.50
2017-07-05T03:58:56.299Z,81.30
2017-07-05T04:01:24.579Z,81.10
2017-07-05T04:03:52.877Z,81.10
2017-07-05T04:06:20.368Z,80.90
2017-07-05T04:08:47.855Z,81.20
2017-07-05T04:11:15.353Z,81.00
2017-07-05T04:13:42.838Z,81.00
2017-07-05T04:16:10.312Z,81.00
2017-07-05T04:18:37.795Z,81.10
2017-07-05T04:21:06.043Z,82.10
2017-07-05T04:23:33.523Z,82.00
2017-07-05T04:26:01.001Z,81.40
2017-07-05T04:28:29.286Z,82.10
2017-07-05T04:30:56.765Z,82.10
2017-07-05T04:33:24.275Z,82.80
2017-07-05T04:35:51.761Z,82.70
2017-07-05T04:38:19.255Z,82.90
2017-07-05T04:40:46.759Z,82.50
2017-07-05T04:43:15.006Z,82.90
2017-07-05T04:45:42.521Z,82.80
2017-07-05T04:48:10.018Z,83.10
2017-07-05T04:50:37.504Z,82.90
2017-07-05T04:53:05.758Z,82.90
2017-07-05T04:55:33.262Z,82.90
2017-07-05T04:58:00.738Z,83.00
2017-07-05T05:00:28.239Z,82.70
2017-07-05T05:02:55.719Z,82.80
2017-07-05T05:05:23.990Z,82.80
2017-07-05T05:07:52.249Z,83.20
2017-07-05T05:10:19.748Z,82.30
2017-07-05T05:12:47.244Z,82.80
2017-07-05T05:15:14.731Z,82.60
2017-07-05T05:17:42.225Z,83.10
2017-07-05T05:20:09.703Z,83.10
2017-07-05T05:22:37.196Z,82.50
2017-07-05T05:25:04.687Z,82.20
2017-07-05T05:27:32.967Z,83.10
2017-07-05T05:30:00.453Z,82.40
2017-07-05T05:32:27.946Z,82.80
2017-07-05T05:34:55.429Z,82.60
2017-07-05T05:37:24.022Z,83.30
2017-07-05T05:39:51.522Z,83.20
2017-07-05T05:42:19.010Z,83.20
2017-07-05T05:44:50.759Z,82.70
2017-07-05T05:47:18.240Z,82.40
2017-07-05T05:49:46.565Z,82.40
2017-07-05T05:52:14.052Z,82.30
2017-07-05T05:54:41.522Z,82.80
2017-07-05T05:57:09.787Z,82.70
2017-07-05T05:59:37.279Z,82.40
2017-07-05T06:02:04.773Z,82.10
2017-07-05T06:04:32.260Z,81.60
2017-07-05T06:06:59.767Z,81.30
2017-07-05T06:09:27.265Z,80.40
2017-07-05T06:11:54.774Z,80.20
2017-07-05T06:14:22.259Z,80.10
2017-07-05T06:16:49.787Z,79.00
2017-07-05T06:19:18.043Z,79.40
2017-07-05T06:21:45.542Z,79.40
2017-07-05T06:24:13.053Z,79.50
2017-07-05T06:26:40.546Z,78.90
2017-07-05T06:29:08.038Z,78.60
2017-07-05T06:31:35.532Z,78.80
2017-07-05T06:34:03.812Z,79.70
2017-07-05T06:36:31.291Z,78.80
2017-07-05T06:38:58.802Z,79.40
2017-07-05T06:41:26.281Z,77.70
2017-07-05T06:43:53.810Z,77.20
2017-07-05T06:46:21.319Z,76.80
2017-07-05T06:48:48.813Z,76.80
2017-07-05T06:51:16.339Z,76.80
2017-07-05T06:53:43.827Z,75.70
2017-07-05T06:56:11.322Z,75.80
2017-07-05T06:58:38.799Z,76.60
2017-07-05T07:01:07.094Z,77.10
2017-07-05T07:03:34.605Z,77.20
2017-07-05T07:06:02.114Z,76.40
2017-07-05T07:08:29.606Z,75.40
2017-07-05T07:10:57.141Z,75.00
2017-07-05T07:13:24.630Z,75.50
2017-07-05T07:15:52.121Z,75.10
2017-07-05T07:18:20.401Z,75.00
2017-07-05T07:20:48.661Z,74.30
2017-07-05T07:23:16.148Z,74.30
2017-07-05T07:25:44.404Z,73.50
2017-07-05T07:28:12.677Z,73.00
2017-07-05T07:30:40.162Z,73.20
2017-07-05T07:33:07.664Z,73.50
2017-07-05T07:35:35.162Z,72.80
2017-07-05T07:38:03.450Z,71.60
2017-07-05T07:40:30.950Z,71.50
2017-07-05T07:42:58.442Z,71.20
2017-07-05T07:45:26.120Z,71.20
2017-07-05T07:47:54.353Z,71.60
2017-07-05T07:50:21.843Z,71.50
2017-07-05T07:52:50.087Z,70.00
2017-07-05T07:55:17.589Z,69.90
2017-07-05T07:57:45.844Z,69.90
2017-07-05T08:00:13.356Z,69.80
2017-07-05T08:02:40.856Z,71.80
2017-07-05T08:05:08.356Z,69.70
2017-07-05T08:07:35.885Z,68.40
2017-07-05T08:10:04.145Z,68.00
2017-07-05T08:12:31.635Z,68.00
2017-07-05T08:14:59.883Z,69.90
2017-07-05T08:17:27.375Z,69.90
2017-07-05T08:19:54.927Z,68.90
2017-07-05T08:22:22.453Z,68.50
2017-07-05T08:24:49.945Z,68.70
2017-07-05T08:27:18.196Z,67.20
2017-07-05T08:29:45.704Z,67.20
2017-07-05T08:32:13.197Z,67.10
2017-07-05T08:34:40.691Z,68.40
2017-07-05T08:37:08.937Z,67.50
2017-07-05T08:39:36.432Z,67.50
2017-07-05T08:42:04.674Z,66.00
2017-07-05T08:44:32.155Z,66.00
2017-07-05T08:47:00.406Z,66.30
2017-07-05T08:49:27.895Z,66.20
2017-07-05T08:51:56.164Z,66.00
2017-07-05T08:54:24.427Z,68.10
2017-07-05T08:56:51.905Z,68.10
2017-07-05T08:59:20.167Z,67.40
2017-07-05T09:01:47.662Z,68.10
2017-07-05T09:04:15.214Z,67.10
2017-07-05T09:06:42.705Z,68.00
2017-07-05T09:09:10.206Z,67.20
2017-07-05T09:11:38.471Z,66.90
2017-07-05T09:14:05.976Z,66.90
2017-07-05T09:16:33.469Z,66.90
2017-07-05T09:19:00.942Z,65.40
2017-07-05T09:21:28.425Z,65.00
2017-07-05T09:23:56.670Z,63.30
2017-07-05T09:26:24.168Z,63.30
2017-07-05T09:28:51.659Z,63.00
2017-07-05T09:31:19.167Z,62.00
2017-07-05T09:33:47.414Z,62.50
2017-07-05T09:36:14.887Z,62.50
2017-07-05T09:38:42.382Z,62.30
2017-07-05T09:41:09.862Z,61.70
2017-07-05T09:43:37.380Z,62.00
2017-07-05T09:46:04.880Z,60.80
2017-07-05T09:48:32.527Z,61.40
2017-07-05T09:51:00.009Z,61.70
2017-07-05T09:53:27.524Z,61.90
2017-07-05T09:55:55.027Z,62.90
2017-07-05T09:58:22.505Z,62.40
2017-07-05T10:00:49.987Z,62.30
2017-07-05T10:03:18.255Z,62.30
2017-07-05T10:05:53.367Z,63.80
2017-07-05T10:08:20.863Z,63.40
2017-07-05T10:10:49.136Z,62.60
2017-07-05T10:13:17.387Z,61.10
2017-07-05T10:15:44.880Z,61.10
2017-07-05T10:18:12.362Z,61.40
2017-07-05T10:20:39.855Z,59.50
2017-07-05T10:23:07.338Z,61.80
2017-07-05T10:25:35.589Z,60.30
2017-07-05T10:28:03.074Z,60.30
2017-07-05T10:30:31.347Z,60.00
2017-07-05T10:32:59.599Z,60.10
2017-07-05T10:35:27.112Z,60.00
2017-07-05T10:37:54.594Z,61.40
2017-07-05T10:40:22.074Z,60.20
2017-07-05T10:42:57.121Z,61.30
2017-07-05T10:45:25.371Z,59.20
2017-07-05T10:47:52.871Z,58.80
2017-07-05T10:50:21.134Z,59.00
2017-07-05T10:52:48.611Z,59.00
2017-07-05T10:55:16.853Z,59.40
2017-07-05T10:57:44.349Z,59.40
2017-07-05T11:00:11.822Z,60.10
2017-07-05T11:02:39.311Z,59.00
2017-07-05T11:05:06.788Z,59.60
2017-07-05T11:07:34.405Z,57.70
2017-07-05T11:10:01.879Z,57.80
2017-07-05T11:12:29.355Z,59.20
2017-07-05T11:14:56.847Z,58.50
2017-07-05T11:17:25.100Z,59.20
2017-07-05T11:19:52.592Z,58.60
2017-07-05T11:22:20.082Z,59.50
2017-07-05T11:24:47.696Z,59.60
2017-07-05T11:27:15.940Z,59.10
2017-07-05T11:29:43.457Z,59.10
2017-07-05T11:32:10.927Z,58.70
2017-07-05T11:34:38.403Z,59.60
2017-07-05T11:37:05.899Z,59.00
2017-07-05T11:39:34.168Z,59.10
2017-07-05T11:42:01.661Z,59.00
2017-07-05T11:44:29.130Z,58.30
2017-07-05T11:46:56.626Z,58.40
2017-07-05T11:49:24.105Z,57.20
2017-07-05T11:51:52.383Z,56.30
2017-07-05T11:54:20.664Z,58.40
2017-07-05T11:56:49.043Z,57.20
2017-07-05T11:59:17.281Z,57.30
2017-07-05T12:01:44.796Z,57.30
2017-07-05T12:04:12.280Z,56.90
2017-07-05T12:06:39.744Z,55.60
2017-07-05T12:09:07.243Z,55.90
2017-07-05T12:11:35.493Z,57.40
2017-07-05T12:14:02.983Z,57.30
2017-07-05T12:16:31.232Z,56.30
2017-07-05T12:18:58.722Z,56.30
2017-07-05T12:21:26.209Z,57.80
2017-07-05T12:23:53.708Z,57.00
2017-07-05T12:26:21.174Z,57.40
2017-07-05T12:28:48.682Z,57.80
2017-07-05T12:31:16.172Z,56.90
2017-07-05T12:33:43.658Z,57.10
2017-07-05T12:36:11.920Z,57.90
2017-07-05T12:38:39.413Z,57.50
2017-07-05T12:41:06.907Z,56.50
2017-07-05T12:43:34.385Z,55.50
2017-07-05T12:46:01.887Z,55.30
2017-07-05T12:48:29.356Z,55.90
2017-07-05T12:50:56.863Z,54.70
2017-07-05T12:53:24.336Z,56.00
2017-07-05T12:55:52.597Z,54.40
2017-07-05T12:58:20.119Z,54.30
2017-07-05T13:00:57.549Z,54.80
2017-07-05T13:12:17.742Z,53.50
2017-07-05T13:14:45.221Z,55.20
2017-07-05T13:20:06.481Z,53.70
2017-07-05T13:22:33.988Z,53.60
2017-07-05T13:25:01.549Z,53.40
2017-07-05T13:27:29.040Z,53.70
2017-07-05T13:29:56.521Z,55.00
2017-07-05T13:32:24.009Z,52.10
2017-07-05T13:37:44.552Z,52.80
2017-07-05T13:40:12.052Z,52.90
2017-07-05T13:42:39.543Z,52.10
2017-07-05T13:45:17.171Z,51.10
2017-07-05T13:47:44.655Z,52.70
2017-07-05T13:50:12.139Z,49.00
2017-07-05T13:55:33.204Z,51.40
2017-07-05T13:58:00.691Z,50.30
2017-07-05T14:00:28.278Z,50.10
2017-07-05T14:02:56.530Z,50.50
2017-07-05T14:05:25.357Z,50.40
2017-07-05T14:07:54.953Z,47.70
2017-07-05T14:10:23.191Z,48.70
2017-07-05T14:12:50.673Z,48.60
2017-07-05T14:15:18.189Z,49.50
2017-07-05T14:17:46.236Z,49.60
2017-07-05T14:20:13.804Z,48.50
2017-07-05T14:22:41.308Z,50.50
2017-07-05T14:25:08.791Z,47.40
2017-07-05T14:27:37.063Z,47.30
2017-07-05T14:30:05.319Z,43.70
2017-07-05T14:32:32.808Z,43.60
2017-07-05T14:35:01.063Z,44.30
2017-07-05T14:37:28.543Z,44.20
2017-07-05T14:39:56.837Z,43.60
2017-07-05T14:42:24.343Z,43.60
2017-07-05T14:47:45.368Z,41.70
2017-07-05T14:50:12.873Z,42.00
2017-07-05T14:52:40.359Z,42.30
2017-07-05T14:55:07.854Z,43.20
2017-07-05T14:57:35.341Z,43.10
2017-07-05T15:00:03.608Z,43.60
2017-07-05T15:02:31.852Z,43.10
2017-07-05T15:05:02.615Z,43.10
2017-07-05T15:07:30.871Z,44.20
2017-07-05T15:09:58.359Z,44.20
2017-07-05T15:12:25.854Z,44.00
2017-07-05T15:14:53.332Z,43.50
2017-07-05T15:17:20.839Z,43.70
2017-07-05T15:19:48.334Z,43.20
2017-07-05T15:22:15.834Z,43.60
2017-07-05T15:24:52.150Z,43.70
2017-07-05T15:27:19.650Z,43.20
2017-07-05T15:29:47.130Z,43.80
2017-07-05T15:32:14.648Z,43.00
2017-07-05T15:34:42.129Z,43.80
2017-07-05T15:37:10.402Z,44.40
2017-07-05T15:39:37.913Z,44.40
2017-07-05T15:42:06.187Z,44.60
2017-07-05T15:44:33.675Z,45.50
2017-07-05T15:47:01.153Z,46.60
2017-07-05T15:49:28.659Z,45.40
2017-07-05T15:51:56.142Z,45.80
2017-07-05T15:54:23.647Z,46.00
2017-07-05T15:56:51.883Z,47.30
2017-07-05T15:59:19.364Z,47.30
2017-07-05T16:01:47.652Z,45.40
2017-07-05T16:04:15.133Z,45.40
2017-07-05T16:06:42.631Z,45.30
2017-07-05T16:09:10.128Z,44.80
2017-07-05T16:11:38.434Z,44.50
2017-07-05T16:14:06.751Z,44.40
2017-07-05T16:16:34.247Z,44.00
2017-07-05T16:19:01.724Z,44.00
2017-07-05T16:21:29.250Z,44.60
2017-07-05T16:23:57.501Z,44.80
2017-07-05T16:26:24.980Z,45.30
2017-07-05T16:28:52.467Z,45.30
2017-07-05T16:31:19.935Z,45.60
2017-07-05T16:33:47.428Z,44.70
2017-07-05T16:36:14.909Z,45.00
2017-07-05T16:38:43.166Z,44.30
2017-07-05T16:41:10.646Z,44.80
2017-07-05T16:43:38.136Z,44.00
2017-07-05T16:46:05.675Z,42.60
2017-07-05T16:48:33.130Z,41.70
2017-07-05T16:51:01.386Z,40.70
2017-07-05T16:53:28.895Z,40.70
2017-07-05T16:55:56.407Z,40.00
2017-07-05T16:58:24.695Z,38.70
2017-07-05T17:00:52.175Z,38.70
2017-07-05T17:03:19.659Z,37.80
2017-07-05T17:05:47.173Z,38.20
2017-07-05T17:08:15.423Z,38.70
2017-07-05T17:10:42.933Z,38.70
2017-07-05T17:16:03.355Z,36.40
2017-07-05T17:18:30.853Z,36.30
2017-07-05T17:20:58.355Z,36.20
2017-07-05T17:23:25.821Z,36.90
2017-07-05T17:25:53.593Z,35.90
2017-07-05T17:28:21.058Z,36.00
2017-07-05T17:30:48.543Z,35.00
2017-07-05T17:33:16.042Z,35.00
2017-07-05T17:35:43.506Z,34.50
2017-07-05T17:38:11.051Z,34.00
2017-07-05T17:40:39.297Z,31.70
2017-07-05T17:43:06.810Z,31.60
2017-07-05T17:45:34.324Z,32.00
2017-07-05T17:48:01.811Z,32.00
2017-07-05T17:50:29.307Z,32.40
2017-07-05T17:52:56.918Z,32.50
2017-07-05T17:55:24.395Z,35.20
2017-07-05T17:57:51.902Z,37.40
2017-07-05T18:00:19.394Z,39.10
2017-07-05T18:02:46.900Z,41.20
2017-07-05T18:05:14.411Z,42.20
2017-07-05T18:10:34.932Z,44.20
2017-07-05T18:13:02.427Z,45.40
2017-07-05T18:15:29.948Z,46.10
2017-07-05T18:17:57.424Z,46.50
2017-07-05T18:20:25.296Z,47.20
2017-07-05T18:22:52.791Z,47.70
2017-07-05T18:25:20.295Z,48.20
2017-07-05T18:27:50.806Z,48.70
2017-07-05T18:30:19.147Z,49.40
2017-07-05T18:38:32.751Z,50.20
2017-07-05T18:41:01.026Z,50.60
2017-07-05T18:43:29.299Z,51.00
2017-07-05T18:45:57.559Z,51.30
2017-07-05T18:48:25.049Z,51.20
2017-07-05T18:50:52.536Z,51.80
2017-07-05T18:53:20.022Z,53.10
2017-07-05T18:55:47.527Z,52.70
2017-07-05T18:58:15.035Z,53.70
2017-07-05T19:00:42.526Z,54.00
2017-07-05T19:03:10.783Z,54.30
2017-07-05T19:05:38.278Z,54.20
2017-07-05T19:08:05.787Z,54.40
2017-07-05T19:10:33.292Z,54.60
2017-07-05T19:13:00.782Z,54.90
2017-07-05T19:15:28.285Z,54.50
2017-07-05T19:17:56.542Z,54.80
2017-07-05T19:20:24.015Z,54.90
2017-07-05T19:22:51.503Z,55.20
2017-07-05T19:25:19.048Z,55.80
2017-07-05T19:27:47.321Z,57.10
2017-07-05T19:30:14.806Z,56.50
2017-07-05T19:32:48.083Z,56.50
2017-07-05T19:35:16.353Z,57.70
2017-07-05T19:37:44.870Z,58.20
2017-07-05T19:40:12.365Z,58.10
2017-07-05T19:42:39.846Z,58.20
2017-07-05T19:45:08.095Z,58.90
2017-07-05T19:47:35.585Z,58.90
2017-07-05T19:50:03.855Z,58.80
2017-07-05T19:52:31.359Z,58.80
2017-07-05T19:54:58.835Z,58.70
2017-07-05T19:57:26.342Z,59.50
2017-07-05T19:59:53.827Z,59.50
2017-07-05T20:02:21.380Z,59.90
2017-07-05T20:04:48.876Z,61.10
2017-07-05T20:07:16.361Z,61.50
2017-07-05T20:09:44.631Z,62.00
2017-07-05T20:12:12.160Z,61.90
2017-07-05T20:17:33.039Z,61.70
2017-07-05T20:20:00.526Z,61.70
2017-07-05T20:22:28.046Z,62.50
2017-07-05T20:27:50.683Z,63.70
2017-07-05T20:30:18.162Z,63.80
2017-07-05T20:32:46.434Z,64.50
2017-07-05T20:35:15.315Z,64.70
2017-07-05T20:37:43.575Z,65.50
2017-07-05T20:40:11.071Z,64.80
2017-07-05T20:42:38.913Z,65.30
2017-07-05T20:45:07.252Z,66.00
2017-07-05T20:47:34.781Z,65.80
2017-07-05T20:50:02.317Z,65.90
2017-07-05T20:52:30.627Z,66.30
2017-07-05T20:54:58.237Z,66.20
2017-07-05T20:57:26.436Z,66.10
2017-07-05T20:59:54.753Z,66.60
2017-07-05T21:02:22.270Z,66.60
2017-07-05T21:04:50.600Z,66.70
2017-07-05T21:07:18.166Z,66.70
2017-07-05T21:09:45.680Z,66.50
2017-07-05T21:12:13.213Z,66.90
2017-07-05T21:14:41.532Z,66.70
2017-07-05T21:17:09.073Z,66.60
2017-07-05T21:19:37.356Z,67.20
2017-07-05T21:22:04.903Z,67.20
2017-07-05T21:24:32.426Z,70.00
2017-07-05T21:29:52.786Z,70.30
2017-07-05T21:32:20.360Z,69.90
2017-07-05T21:34:47.895Z,69.60
2017-07-05T21:37:16.979Z,69.90
2017-07-05T21:39:45.266Z,70.30
2017-07-05T21:42:13.549Z,70.50
2017-07-05T21:44:41.090Z,70.50
2017-07-05T21:47:09.392Z,70.70
2017-07-05T21:49:36.932Z,70.70
2017-07-05T21:52:12.131Z,71.90
2017-07-05T21:54:39.678Z,71.90
2017-07-05T21:57:07.235Z,72.10
2017-07-05T21:59:34.769Z,71.30
2017-07-05T22:02:02.291Z,71.10
2017-07-05T22:04:29.846Z,70.80
2017-07-05T22:06:57.363Z,71.20
2017-07-05T22:09:24.889Z,71.90
2017-07-05T22:12:01.643Z,73.00
2017-07-05T22:14:29.159Z,72.90
2017-07-05T22:16:56.684Z,73.30
2017-07-05T22:19:24.973Z,73.30
2017-07-05T22:21:52.495Z,73.30
2017-07-05T22:24:20.114Z,73.60
2017-07-05T22:26:47.636Z,73.50
2017-07-05T22:29:16.616Z,72.70
2017-07-05T22:31:44.228Z,72.60
2017-07-05T22:34:11.737Z,73.10
2017-07-05T22:36:40.030Z,73.50
2017-07-05T22:39:07.569Z,72.80
2017-07-05T22:41:35.853Z,73.80
2017-07-05T22:44:04.150Z,74.10
2017-07-05T22:46:31.673Z,74.00
2017-07-05T22:49:11.189Z,74.20
2017-07-05T22:54:54.625Z,74.10
2017-07-05T22:57:22.164Z,74.50
2017-07-05T22:59:49.683Z,74.40
2017-07-05T23:02:17.232Z,74.30
2017-07-05T23:04:44.750Z,73.50
2017-07-05T23:07:12.262Z,73.20
2017-07-05T23:09:39.803Z,73.40
2017-07-05T23:12:07.317Z,73.60
2017-07-05T23:14:34.846Z,73.90
2017-07-05T23:17:03.131Z,75.00
2017-07-05T23:19:31.427Z,74.90
2017-07-05T23:21:58.898Z,74.70
2017-07-05T23:24:26.400Z,74.90
2017-07-05T23:26:53.874Z,75.30
2017-07-05T23:29:22.146Z,75.80
2017-07-05T23:31:49.616Z,75.60
2017-07-05T23:34:17.864Z,76.30
2017-07-05T23:36:45.343Z,76.20
2017-07-05T23:39:13.594Z,75.60
2017-07-05T23:41:41.078Z,76.30
2017-07-05T23:44:09.332Z,75.50
2017-07-05T23:46:36.819Z,75.50
2017-07-05T23:49:05.076Z,75.80
2017-07-05T23:51:32.568Z,75.80
2017-07-05T23:54:00.051Z,76.00
2017-07-05T23:56:27.556Z,76.20
2017-07-05T23:58:56.727Z,76.20
